createdAt,value
2017-11-04T00:00:04.098Z,7.02
2017-11-04T00:01:57.088Z,6.95
2017-11-04T00:02:57.142Z,6.96
2017-11-04T00:04:50.149Z,6.89
2017-11-04T00:05:50.197Z,6.87
2017-11-04T00:07:43.181Z,6.81
2017-11-04T00:08:43.228Z,6.85
2017-11-04T00:10:36.227Z,6.79
2017-11-04T00:11:36.264Z,6.77
2017-11-04T00:13:29.778Z,6.82
2017-11-04T00:14:29.808Z,6.77
2017-11-04T00:16:22.790Z,6.82
2017-11-04T00:17:22.848Z,6.79
2017-11-04T00:19:15.895Z,6.85
2017-11-04T00:20:15.912Z,6.85
2017-11-04T00:22:08.877Z,6.85
2017-11-04T00:23:08.949Z,6.78
2017-11-04T00:25:01.934Z,6.88
2017-11-04T00:26:01.980Z,6.79
2017-11-04T00:27:54.950Z,6.74
2017-11-04T00:28:55.008Z,6.79
2017-11-04T00:30:48.018Z,6.84
2017-11-04T00:31:48.046Z,6.85
2017-11-04T00:33:41.048Z,6.77
2017-11-04T00:34:41.082Z,6.79
2017-11-04T00:36:34.065Z,6.87
2017-11-04T00:37:34.128Z,6.85
2017-11-04T00:39:27.122Z,6.89
2017-11-04T00:40:27.159Z,6.89
2017-11-04T00:42:20.139Z,6.99
2017-11-04T00:43:20.199Z,6.88
2017-11-04T00:45:13.200Z,6.99
2017-11-04T00:46:13.238Z,6.89
2017-11-04T00:48:06.221Z,6.89
2017-11-04T00:49:06.279Z,6.88
2017-11-04T00:50:59.280Z,6.97
2017-11-04T00:51:59.316Z,6.84
2017-11-04T00:53:52.321Z,6.87
2017-11-04T00:54:52.356Z,6.85
2017-11-04T00:56:45.341Z,6.88
2017-11-04T00:57:45.403Z,6.84
2017-11-04T00:59:38.397Z,6.85
2017-11-04T01:00:38.440Z,6.92
2017-11-04T01:02:31.413Z,6.79
2017-11-04T01:03:31.473Z,6.77
2017-11-04T01:05:24.476Z,6.87
2017-11-04T01:06:24.512Z,6.85
2017-11-04T01:08:17.506Z,6.96
2017-11-04T01:09:17.560Z,6.84
2017-11-04T01:11:10.569Z,6.85
2017-11-04T01:12:10.596Z,6.87
2017-11-04T01:14:03.605Z,6.84
2017-11-04T01:15:03.639Z,6.84
2017-11-04T01:16:56.619Z,6.82
2017-11-04T01:17:56.680Z,6.87
2017-11-04T01:19:49.679Z,6.88
2017-11-04T01:20:49.715Z,6.85
2017-11-04T01:22:42.708Z,6.77
2017-11-04T01:23:42.766Z,6.81
2017-11-04T01:25:35.773Z,6.74
2017-11-04T01:26:35.811Z,6.74
2017-11-04T01:28:28.805Z,6.85
2017-11-04T01:29:28.863Z,6.75
2017-11-04T01:31:21.862Z,6.77
2017-11-04T01:32:21.901Z,6.79
2017-11-04T01:34:14.900Z,6.84
2017-11-04T01:35:14.962Z,6.85
2017-11-04T01:37:07.920Z,6.79
2017-11-04T01:38:07.978Z,6.74
2017-11-04T01:40:01.494Z,6.81
2017-11-04T01:41:01.520Z,6.72
2017-11-04T01:42:54.505Z,6.70
2017-11-04T01:43:54.560Z,6.74
2017-11-04T01:45:47.561Z,6.74
2017-11-04T01:46:47.601Z,6.67
2017-11-04T01:48:40.578Z,6.78
2017-11-04T01:49:40.636Z,6.72
2017-11-04T01:51:33.643Z,6.74
2017-11-04T01:52:33.676Z,6.77
2017-11-04T01:54:26.680Z,6.79
2017-11-04T01:55:26.715Z,6.69
2017-11-04T01:57:19.702Z,6.79
2017-11-04T01:58:19.767Z,6.70
2017-11-04T02:00:12.756Z,6.78
2017-11-04T02:01:12.799Z,6.79
2017-11-04T02:03:05.770Z,6.74
2017-11-04T02:04:05.829Z,6.78
2017-11-04T02:05:58.835Z,6.77
2017-11-04T02:06:58.871Z,6.75
2017-11-04T02:08:51.846Z,6.72
2017-11-04T02:09:51.904Z,6.79
2017-11-04T02:11:44.909Z,6.75
2017-11-04T02:12:44.941Z,6.77
2017-11-04T02:14:37.943Z,6.74
2017-11-04T02:15:37.985Z,6.77
2017-11-04T02:17:30.957Z,6.74
2017-11-04T02:18:31.018Z,6.77
2017-11-04T02:20:24.016Z,6.81
2017-11-04T02:21:24.057Z,6.81
2017-11-04T02:23:17.033Z,6.78
2017-11-04T02:24:17.090Z,6.74
2017-11-04T02:26:10.095Z,6.79
2017-11-04T02:27:10.129Z,6.72
2017-11-04T02:29:03.106Z,6.70
2017-11-04T02:30:03.177Z,6.74
2017-11-04T02:31:56.177Z,6.79
2017-11-04T02:32:56.202Z,6.77
2017-11-04T02:34:49.201Z,6.79
2017-11-04T02:35:49.243Z,6.77
2017-11-04T02:37:42.217Z,6.78
2017-11-04T02:38:42.274Z,6.81
2017-11-04T02:40:35.787Z,6.75
2017-11-04T02:41:35.822Z,6.74
2017-11-04T02:43:28.801Z,6.79
2017-11-04T02:44:28.859Z,6.79
2017-11-04T02:46:21.858Z,6.78
2017-11-04T02:47:21.897Z,6.74
2017-11-04T02:49:14.881Z,6.74
2017-11-04T02:50:14.940Z,6.74
2017-11-04T02:52:07.940Z,6.78
2017-11-04T02:53:07.977Z,6.88
2017-11-04T02:55:00.979Z,6.88
2017-11-04T02:56:01.014Z,6.85
2017-11-04T02:57:53.997Z,6.85
2017-11-04T02:58:54.060Z,6.92
2017-11-04T03:00:47.062Z,6.79
2017-11-04T03:01:47.100Z,6.81
2017-11-04T03:03:40.076Z,6.89
2017-11-04T03:04:40.131Z,6.81
2017-11-04T03:06:33.135Z,6.85
2017-11-04T03:07:33.173Z,6.74
2017-11-04T03:09:26.152Z,6.81
2017-11-04T03:10:26.208Z,6.82
2017-11-04T03:12:19.215Z,6.75
2017-11-04T03:13:19.253Z,6.79
2017-11-04T03:15:12.252Z,6.81
2017-11-04T03:16:12.290Z,6.84
2017-11-04T03:18:05.270Z,6.74
2017-11-04T03:19:05.326Z,6.79
2017-11-04T03:20:58.327Z,6.74
2017-11-04T03:21:58.363Z,6.74
2017-11-04T03:23:51.341Z,6.63
2017-11-04T03:24:51.405Z,6.66
2017-11-04T03:26:44.401Z,6.64
2017-11-04T03:27:44.438Z,6.60
2017-11-04T03:29:37.416Z,6.59
2017-11-04T03:30:37.477Z,6.56
2017-11-04T03:32:30.474Z,6.46
2017-11-04T03:33:30.513Z,6.52
2017-11-04T03:35:23.511Z,6.44
2017-11-04T03:36:23.548Z,6.62
2017-11-04T03:38:17.038Z,6.57
2017-11-04T03:39:17.097Z,6.52
2017-11-04T03:41:10.112Z,6.46
2017-11-04T03:42:10.141Z,6.60
2017-11-04T03:44:03.119Z,6.60
2017-11-04T03:45:03.186Z,6.51
2017-11-04T03:46:56.178Z,6.56
2017-11-04T03:47:56.217Z,6.57
2017-11-04T03:49:49.198Z,6.52
2017-11-04T03:50:49.253Z,6.51
2017-11-04T03:52:42.256Z,6.63
2017-11-04T03:53:42.292Z,6.57
2017-11-04T03:55:35.297Z,6.59
2017-11-04T03:56:35.333Z,6.56
2017-11-04T03:58:28.320Z,6.57
2017-11-04T03:59:28.372Z,6.51
2017-11-04T04:01:21.377Z,6.49
2017-11-04T04:02:21.413Z,6.59
2017-11-04T04:04:14.394Z,6.66
2017-11-04T04:05:14.446Z,6.60
2017-11-04T04:07:07.447Z,6.60
2017-11-04T04:08:07.483Z,6.67
2017-11-04T04:10:00.472Z,6.60
2017-11-04T04:11:00.528Z,6.57
2017-11-04T04:12:53.531Z,6.57
2017-11-04T04:13:53.568Z,6.56
2017-11-04T04:15:46.566Z,6.57
2017-11-04T04:16:46.604Z,6.57
2017-11-04T04:18:39.583Z,6.60
2017-11-04T04:19:39.661Z,6.56
2017-11-04T04:21:32.643Z,6.66
2017-11-04T04:22:32.686Z,6.60
2017-11-04T04:24:25.661Z,6.62
2017-11-04T04:25:25.716Z,6.59
2017-11-04T04:27:18.723Z,6.66
2017-11-04T04:28:18.755Z,6.57
2017-11-04T04:30:11.740Z,6.56
2017-11-04T04:31:11.795Z,6.62
2017-11-04T04:33:04.794Z,6.52
2017-11-04T04:34:04.830Z,6.59
2017-11-04T04:35:57.828Z,6.60
2017-11-04T04:36:57.866Z,6.69
2017-11-04T04:38:50.846Z,6.64
2017-11-04T04:39:50.903Z,6.67
2017-11-04T04:41:43.912Z,6.67
2017-11-04T04:42:43.941Z,6.64
2017-11-04T04:44:36.917Z,6.52
2017-11-04T04:45:36.978Z,6.62
2017-11-04T04:47:29.974Z,6.70
2017-11-04T04:48:30.013Z,6.62
2017-11-04T04:50:22.993Z,6.63
2017-11-04T04:51:23.050Z,6.59
2017-11-04T04:53:16.053Z,6.63
2017-11-04T04:54:16.087Z,6.64
2017-11-04T04:56:09.089Z,6.66
2017-11-04T04:57:09.127Z,6.67
2017-11-04T04:59:02.106Z,6.75
2017-11-04T05:00:02.163Z,6.79
2017-11-04T05:01:55.162Z,6.72
2017-11-04T05:02:55.201Z,6.75
2017-11-04T05:04:48.183Z,6.75
2017-11-04T05:05:48.246Z,6.74
2017-11-04T05:07:41.239Z,6.74
2017-11-04T05:08:41.275Z,6.77
2017-11-04T05:10:34.260Z,6.67
2017-11-04T05:11:34.314Z,6.62
2017-11-04T05:13:27.314Z,6.74
2017-11-04T05:14:27.349Z,6.72
2017-11-04T05:16:20.349Z,6.74
2017-11-04T05:17:20.385Z,6.75
2017-11-04T05:19:13.365Z,6.64
2017-11-04T05:20:13.422Z,6.66
2017-11-04T05:22:06.424Z,6.70
2017-11-04T05:23:06.459Z,6.51
2017-11-04T05:24:59.452Z,6.52
2017-11-04T05:25:59.513Z,6.57
2017-11-04T05:27:52.516Z,6.54
2017-11-04T05:28:52.551Z,6.56
2017-11-04T05:30:45.529Z,6.48
2017-11-04T05:31:45.588Z,6.46
2017-11-04T05:33:38.587Z,6.49
2017-11-04T05:34:38.623Z,6.54
2017-11-04T05:36:31.628Z,6.54
2017-11-04T05:37:31.666Z,6.57
2017-11-04T05:39:24.644Z,6.51
2017-11-04T05:40:24.703Z,6.51
2017-11-04T05:42:17.703Z,6.38
2017-11-04T05:43:17.741Z,6.36
2017-11-04T05:45:10.725Z,6.28
2017-11-04T05:46:10.777Z,6.36
2017-11-04T05:48:03.777Z,6.45
2017-11-04T05:49:03.813Z,6.46
2017-11-04T05:50:56.797Z,6.48
2017-11-04T05:51:56.868Z,6.44
2017-11-04T05:53:49.860Z,6.51
2017-11-04T05:54:49.898Z,6.52
2017-11-04T05:56:42.897Z,6.56
2017-11-04T05:57:42.937Z,6.52
2017-11-04T05:59:35.913Z,6.56
2017-11-04T06:00:35.973Z,6.59
2017-11-04T06:02:29.482Z,6.66
2017-11-04T06:03:29.513Z,6.69
2017-11-04T06:05:22.502Z,6.67
2017-11-04T06:06:22.557Z,6.67
2017-11-04T06:08:15.563Z,6.79
2017-11-04T06:09:15.602Z,6.75
2017-11-04T06:11:08.581Z,6.77
2017-11-04T06:12:08.640Z,6.78
2017-11-04T06:14:01.640Z,6.81
2017-11-04T06:15:01.677Z,6.74
2017-11-04T06:16:54.682Z,6.75
2017-11-04T06:17:54.713Z,6.77
2017-11-04T06:19:47.691Z,6.78
2017-11-04T06:20:47.749Z,6.79
2017-11-04T06:22:40.757Z,6.77
2017-11-04T06:23:40.796Z,6.74
2017-11-04T06:25:33.774Z,6.79
2017-11-04T06:26:33.832Z,6.72
2017-11-04T06:28:26.832Z,6.84
2017-11-04T06:29:26.871Z,6.75
2017-11-04T06:31:19.848Z,6.75
2017-11-04T06:32:19.908Z,6.78
2017-11-04T06:34:12.907Z,6.78
2017-11-04T06:35:12.942Z,6.79
2017-11-04T06:37:05.943Z,6.77
2017-11-04T06:38:05.978Z,6.88
2017-11-04T06:39:58.961Z,6.84
2017-11-04T06:40:59.036Z,6.85
2017-11-04T06:42:52.019Z,6.82
2017-11-04T06:43:52.056Z,6.89
2017-11-04T06:45:45.035Z,6.85
2017-11-04T06:46:45.092Z,6.84
2017-11-04T06:48:38.094Z,6.95
2017-11-04T06:49:38.128Z,7.00
2017-11-04T06:51:31.120Z,7.06
2017-11-04T06:52:31.166Z,6.97
2017-11-04T06:54:24.175Z,7.00
2017-11-04T06:55:24.214Z,7.06
2017-11-04T06:57:17.210Z,7.05
2017-11-04T06:58:17.248Z,7.11
2017-11-04T07:00:10.237Z,7.14
2017-11-04T07:01:10.289Z,7.11
2017-11-04T07:03:03.283Z,7.15
2017-11-04T07:04:03.324Z,7.20
2017-11-04T07:05:56.305Z,7.32
2017-11-04T07:06:56.360Z,7.32
2017-11-04T07:08:49.367Z,7.21
2017-11-04T07:09:49.404Z,7.28
2017-11-04T07:11:42.392Z,7.45
2017-11-04T07:12:42.451Z,7.43
2017-11-04T07:14:35.450Z,7.51
2017-11-04T07:15:35.487Z,7.60
2017-11-04T07:17:28.489Z,7.70
2017-11-04T07:18:28.525Z,7.66
2017-11-04T07:20:21.504Z,7.72
2017-11-04T07:21:21.560Z,7.76
2017-11-04T07:23:14.561Z,7.97
2017-11-04T07:24:14.599Z,7.93
2017-11-04T07:26:07.587Z,8.01
2017-11-04T07:27:07.636Z,8.12
2017-11-04T07:29:00.645Z,8.16
2017-11-04T07:30:00.674Z,8.08
2017-11-04T07:31:53.653Z,8.28
2017-11-04T07:32:53.716Z,8.27
2017-11-04T07:34:46.713Z,8.34
2017-11-04T07:35:46.750Z,8.27
2017-11-04T07:37:39.764Z,8.46
2017-11-04T07:38:39.790Z,8.48
2017-11-04T07:40:32.789Z,9.08
2017-11-04T07:41:32.847Z,9.32
2017-11-04T07:43:25.853Z,9.55
2017-11-04T07:44:25.889Z,9.36
2017-11-04T07:46:18.871Z,9.25
2017-11-04T07:47:18.935Z,9.23
2017-11-04T07:49:11.932Z,9.19
2017-11-04T07:50:11.971Z,9.19
2017-11-04T07:52:04.961Z,8.95
2017-11-04T07:53:05.011Z,8.95
2017-11-04T07:54:58.035Z,8.85
2017-11-04T07:55:58.075Z,8.87
2017-11-04T07:57:51.075Z,8.85
2017-11-04T07:58:51.111Z,8.71
2017-11-04T08:00:44.091Z,8.60
2017-11-04T08:01:44.159Z,8.53
2017-11-04T08:03:37.155Z,8.58
2017-11-04T08:04:37.194Z,8.61
2017-11-04T08:06:30.272Z,8.63
2017-11-04T08:07:30.287Z,8.60
2017-11-04T08:09:23.268Z,8.63
2017-11-04T08:10:23.308Z,8.67
2017-11-04T08:12:16.294Z,8.82
2017-11-04T08:13:16.351Z,8.69
2017-11-04T08:15:09.358Z,8.79
2017-11-04T08:16:09.392Z,8.78
2017-11-04T08:18:02.936Z,8.76
2017-11-04T08:19:02.510Z,8.84
2017-11-04T08:20:56.910Z,8.85
2017-11-04T08:21:56.633Z,8.85
2017-11-04T08:23:48.749Z,8.76
2017-11-04T08:24:48.789Z,8.85
2017-11-04T08:26:41.808Z,8.89
2017-11-04T08:27:41.866Z,8.85
2017-11-04T08:29:34.871Z,8.76
2017-11-04T08:30:34.907Z,8.70
2017-11-04T08:32:27.900Z,8.73
2017-11-04T08:33:28.075Z,8.69
2017-11-04T08:35:20.946Z,8.78
2017-11-04T08:36:21.004Z,8.82
2017-11-04T08:38:16.145Z,8.91
2017-11-04T08:39:14.568Z,9.03
2017-11-04T08:41:07.013Z,9.22
2017-11-04T08:42:07.072Z,9.43
2017-11-04T08:44:00.616Z,9.62
2017-11-04T08:45:00.125Z,9.68
2017-11-04T08:46:53.090Z,9.51
2017-11-04T08:47:53.156Z,9.47
2017-11-04T08:49:46.672Z,9.37
2017-11-04T08:50:46.709Z,9.23
2017-11-04T08:52:41.752Z,9.16
2017-11-04T08:53:39.937Z,9.13
2017-11-04T08:55:32.939Z,9.03
2017-11-04T08:56:32.995Z,9.18
2017-11-04T08:58:26.001Z,9.22
2017-11-04T08:59:26.078Z,9.25
2017-11-04T09:01:19.031Z,9.37
2017-11-04T09:02:19.064Z,9.50
2017-11-04T09:04:12.078Z,9.74
2017-11-04T09:05:12.114Z,9.86
2017-11-04T09:07:05.116Z,9.95
2017-11-04T09:08:05.169Z,9.98
2017-11-04T09:09:58.194Z,10.25
2017-11-04T09:10:58.211Z,10.42
2017-11-04T09:12:51.198Z,10.44
2017-11-04T09:13:51.281Z,10.61
2017-11-04T09:15:44.279Z,10.69
2017-11-04T09:16:44.308Z,10.59
2017-11-04T09:18:37.313Z,10.56
2017-11-04T09:19:37.375Z,10.60
2017-11-04T09:21:30.337Z,10.60
2017-11-04T09:22:30.392Z,10.63
2017-11-04T09:24:23.395Z,10.61
2017-11-04T09:25:23.439Z,10.68
2017-11-04T09:27:16.421Z,10.81
2017-11-04T09:28:16.481Z,10.86
2017-11-04T09:30:09.488Z,10.89
2017-11-04T09:31:09.527Z,10.90
2017-11-04T09:33:02.513Z,10.86
2017-11-04T09:34:02.565Z,10.92
2017-11-04T09:35:55.574Z,10.87
2017-11-04T09:36:55.614Z,10.94
2017-11-04T09:38:48.616Z,10.97
2017-11-04T09:39:48.654Z,10.96
2017-11-04T09:41:41.639Z,11.02
2017-11-04T09:42:41.699Z,11.11
2017-11-04T09:44:34.710Z,11.19
2017-11-04T09:45:34.749Z,11.18
2017-11-04T09:47:27.731Z,11.14
2017-11-04T09:48:27.790Z,11.22
2017-11-04T09:50:21.807Z,11.27
2017-11-04T09:51:21.851Z,11.37
2017-11-04T09:53:14.833Z,11.41
2017-11-04T09:54:14.895Z,11.44
2017-11-04T09:56:07.902Z,11.52
2017-11-04T09:57:07.939Z,11.50
2017-11-04T09:59:00.942Z,11.70
2017-11-04T10:00:00.981Z,11.66
2017-11-04T10:01:53.972Z,11.68
2017-11-04T10:02:54.032Z,11.70
2017-11-04T10:04:47.035Z,11.73
2017-11-04T10:05:47.074Z,11.95
2017-11-04T10:07:40.056Z,11.81
2017-11-04T10:08:40.112Z,11.87
2017-11-04T10:10:33.117Z,11.99
2017-11-04T10:11:33.154Z,12.09
2017-11-04T10:13:26.142Z,12.04
2017-11-04T10:14:26.198Z,12.10
2017-11-04T10:16:19.204Z,12.24
2017-11-04T10:17:19.243Z,12.29
2017-11-04T10:19:12.248Z,12.39
2017-11-04T10:20:12.285Z,12.43
2017-11-04T10:22:05.273Z,12.54
2017-11-04T10:23:05.328Z,12.45
2017-11-04T10:24:58.332Z,12.60
2017-11-04T10:25:58.369Z,12.62
2017-11-04T10:27:51.369Z,12.68
2017-11-04T10:28:51.422Z,12.75
2017-11-04T10:30:44.424Z,12.65
2017-11-04T10:31:44.466Z,12.73
2017-11-04T10:33:37.451Z,12.86
2017-11-04T10:34:37.509Z,12.80
2017-11-04T10:36:30.518Z,12.87
2017-11-04T10:37:30.552Z,12.85
2017-11-04T10:39:23.558Z,12.94
2017-11-04T10:40:23.595Z,12.98
2017-11-04T10:42:16.581Z,13.18
2017-11-04T10:43:16.640Z,13.22
2017-11-04T10:45:09.653Z,13.19
2017-11-04T10:46:09.686Z,13.18
2017-11-04T10:48:02.672Z,13.38
2017-11-04T10:49:02.731Z,13.46
2017-11-04T10:50:55.735Z,13.46
2017-11-04T10:51:55.772Z,13.39
2017-11-04T10:53:48.755Z,13.23
2017-11-04T10:54:48.815Z,13.27
2017-11-04T10:56:41.819Z,13.44
2017-11-04T10:57:41.858Z,13.47
2017-11-04T10:59:34.871Z,13.33
2017-11-04T11:00:34.910Z,13.46
2017-11-04T11:02:29.404Z,13.54
2017-11-04T11:03:29.463Z,13.54
2017-11-04T11:05:22.468Z,13.68
2017-11-04T11:06:22.506Z,13.54
2017-11-04T11:08:15.496Z,13.71
2017-11-04T11:09:15.549Z,13.83
2017-11-04T11:11:08.550Z,13.79
2017-11-04T11:12:08.592Z,13.78
2017-11-04T11:14:01.576Z,13.77
2017-11-04T11:15:01.635Z,13.78
2017-11-04T11:16:54.645Z,13.92
2017-11-04T11:17:54.686Z,13.97
2017-11-04T11:19:47.695Z,14.00
2017-11-04T11:20:47.734Z,14.10
2017-11-04T11:22:40.720Z,13.92
2017-11-04T11:23:40.779Z,13.81
2017-11-04T11:25:33.785Z,13.75
2017-11-04T11:26:33.827Z,13.67
2017-11-04T11:28:26.814Z,13.70
2017-11-04T11:29:26.873Z,13.63
2017-11-04T11:31:19.896Z,13.67
2017-11-04T11:32:19.914Z,13.62
2017-11-04T11:34:12.903Z,13.59
2017-11-04T11:35:12.956Z,13.72
2017-11-04T11:37:05.960Z,13.86
2017-11-04T11:38:06.006Z,13.90
2017-11-04T11:39:59.004Z,14.11
2017-11-04T11:40:59.046Z,14.15
2017-11-04T11:42:52.030Z,14.10
2017-11-04T11:43:52.093Z,14.11
2017-11-04T11:45:45.107Z,14.22
2017-11-04T11:46:45.138Z,14.12
2017-11-04T11:48:38.120Z,13.92
2017-11-04T11:49:38.182Z,13.87
2017-11-04T11:51:31.186Z,13.75
2017-11-04T11:52:31.226Z,13.70
2017-11-04T11:54:24.214Z,13.67
2017-11-04T11:55:24.269Z,13.74
2017-11-04T11:57:17.274Z,13.79
2017-11-04T11:58:17.321Z,13.99
2017-11-04T12:00:10.324Z,14.18
2017-11-04T12:01:10.360Z,14.41
2017-11-04T12:03:03.855Z,14.63
2017-11-04T12:04:03.914Z,14.78
2017-11-04T12:05:56.924Z,14.92
2017-11-04T12:06:56.964Z,14.94
2017-11-04T12:08:49.951Z,14.81
2017-11-04T12:09:50.010Z,14.96
2017-11-04T12:11:43.021Z,14.82
2017-11-04T12:12:43.057Z,14.81
2017-11-04T12:14:36.045Z,14.73
2017-11-04T12:15:36.110Z,14.72
2017-11-04T12:17:29.112Z,14.84
2017-11-04T12:18:29.152Z,14.88
2017-11-04T12:20:22.160Z,14.78
2017-11-04T12:21:22.200Z,14.59
2017-11-04T12:23:15.185Z,14.63
2017-11-04T12:24:15.246Z,14.65
2017-11-04T12:26:08.253Z,14.78
2017-11-04T12:27:08.293Z,14.88
2017-11-04T12:29:01.286Z,14.88
2017-11-04T12:30:01.363Z,14.79
2017-11-04T12:31:54.351Z,14.82
2017-11-04T12:32:54.392Z,14.82
2017-11-04T12:34:47.377Z,14.99
2017-11-04T12:35:47.436Z,14.82
2017-11-04T12:37:40.445Z,14.89
2017-11-04T12:38:40.484Z,14.72
2017-11-04T12:40:33.492Z,14.54
2017-11-04T12:41:33.531Z,14.48
2017-11-04T12:43:26.518Z,14.37
2017-11-04T12:44:26.579Z,14.44
2017-11-04T12:46:19.588Z,14.37
2017-11-04T12:47:19.626Z,14.43
2017-11-04T12:49:12.614Z,14.58
2017-11-04T12:50:12.673Z,14.47
2017-11-04T12:52:05.714Z,14.65
2017-11-04T12:53:05.718Z,14.65
2017-11-04T12:54:58.713Z,14.63
2017-11-04T12:55:58.764Z,14.65
2017-11-04T12:57:51.769Z,14.58
2017-11-04T12:58:51.810Z,14.62
2017-11-04T13:00:44.817Z,14.54
2017-11-04T13:01:44.859Z,14.54
2017-11-04T13:03:37.847Z,14.59
2017-11-04T13:04:37.928Z,14.58
2017-11-04T13:06:30.913Z,14.62
2017-11-04T13:07:30.955Z,14.72
2017-11-04T13:09:23.948Z,14.70
2017-11-04T13:10:23.999Z,14.69
2017-11-04T13:12:17.009Z,14.72
2017-11-04T13:13:17.050Z,14.72
2017-11-04T13:15:10.045Z,14.73
2017-11-04T13:16:10.106Z,14.81
2017-11-04T13:18:03.104Z,14.89
2017-11-04T13:19:03.145Z,14.97
2017-11-04T13:20:56.191Z,14.96
2017-11-04T13:21:56.194Z,14.97
2017-11-04T13:23:49.180Z,14.72
2017-11-04T13:24:49.238Z,14.66
2017-11-04T13:26:42.244Z,14.41
2017-11-04T13:27:42.285Z,14.50
2017-11-04T13:29:35.272Z,14.35
2017-11-04T13:30:35.330Z,14.33
2017-11-04T13:32:28.337Z,14.29
2017-11-04T13:33:28.375Z,14.36
2017-11-04T13:35:21.362Z,14.48
2017-11-04T13:36:21.423Z,14.55
2017-11-04T13:38:14.429Z,14.63
2017-11-04T13:39:14.474Z,14.77
2017-11-04T13:41:07.474Z,14.84
2017-11-04T13:42:07.516Z,14.88
2017-11-04T13:44:00.516Z,14.88
2017-11-04T13:45:00.563Z,14.89
2017-11-04T13:46:53.570Z,14.99
2017-11-04T13:47:53.609Z,14.94
2017-11-04T13:49:46.596Z,14.97
2017-11-04T13:50:46.655Z,14.92
2017-11-04T13:52:39.683Z,14.96
2017-11-04T13:53:39.705Z,14.91
2017-11-04T13:55:32.695Z,14.97
2017-11-04T13:56:32.751Z,14.96
2017-11-04T13:58:25.756Z,14.91
2017-11-04T13:59:25.797Z,14.91
2017-11-04T14:01:18.803Z,14.89
2017-11-04T14:02:18.843Z,14.92
2017-11-04T14:04:11.833Z,14.91
2017-11-04T14:05:11.893Z,14.97
2017-11-04T14:07:04.901Z,15.02
2017-11-04T14:08:04.941Z,14.96
2017-11-04T14:09:57.931Z,15.09
2017-11-04T14:10:57.994Z,15.09
2017-11-04T14:12:51.000Z,15.04
2017-11-04T14:13:51.041Z,15.06
2017-11-04T14:15:44.029Z,15.14
2017-11-04T14:16:44.091Z,15.15
2017-11-04T14:18:37.099Z,15.18
2017-11-04T14:19:37.139Z,15.11
2017-11-04T14:21:30.145Z,15.09
2017-11-04T14:22:30.186Z,15.15
2017-11-04T14:24:23.184Z,15.10
2017-11-04T14:25:23.242Z,15.07
2017-11-04T14:27:16.249Z,15.10
2017-11-04T14:28:16.290Z,15.10
2017-11-04T14:30:09.280Z,15.14
2017-11-04T14:31:09.335Z,15.14
2017-11-04T14:33:02.850Z,15.18
2017-11-04T14:34:02.889Z,15.14
2017-11-04T14:35:55.884Z,15.22
2017-11-04T14:36:55.945Z,15.27
2017-11-04T14:38:48.952Z,15.18
2017-11-04T14:39:48.998Z,15.15
2017-11-04T14:41:42.003Z,15.18
2017-11-04T14:42:42.041Z,15.18
2017-11-04T14:44:35.549Z,15.27
2017-11-04T14:45:35.596Z,15.25
2017-11-04T14:47:28.602Z,15.21
2017-11-04T14:48:28.642Z,15.17
2017-11-04T14:50:21.631Z,15.15
2017-11-04T14:51:21.695Z,15.11
2017-11-04T14:53:14.703Z,15.10
2017-11-04T14:54:14.741Z,15.07
2017-11-04T14:56:07.728Z,15.07
2017-11-04T14:57:07.787Z,15.04
2017-11-04T14:59:00.796Z,15.00
2017-11-04T15:00:00.834Z,15.03
2017-11-04T15:01:53.860Z,14.94
2017-11-04T15:02:53.882Z,14.81
2017-11-04T15:04:46.872Z,14.82
2017-11-04T15:05:46.932Z,14.77
2017-11-04T15:07:39.941Z,14.79
2017-11-04T15:08:39.987Z,14.79
2017-11-04T15:10:32.971Z,14.77
2017-11-04T15:11:33.034Z,14.62
2017-11-04T15:13:26.078Z,14.59
2017-11-04T15:14:26.080Z,14.65
2017-11-04T15:16:19.076Z,14.62
2017-11-04T15:17:19.139Z,14.60
2017-11-04T15:19:12.142Z,14.60
2017-11-04T15:20:12.190Z,14.59
2017-11-04T15:22:05.209Z,14.59
2017-11-04T15:23:05.229Z,14.68
2017-11-04T15:24:58.216Z,14.62
2017-11-04T15:25:58.277Z,14.62
2017-11-04T15:27:51.279Z,14.62
2017-11-04T15:28:51.327Z,14.60
2017-11-04T15:30:44.310Z,14.47
2017-11-04T15:31:44.371Z,14.47
2017-11-04T15:33:37.375Z,14.45
2017-11-04T15:34:37.417Z,14.41
2017-11-04T15:36:30.406Z,14.40
2017-11-04T15:37:30.466Z,14.43
2017-11-04T15:39:23.469Z,14.47
2017-11-04T15:40:23.509Z,14.40
2017-11-04T15:42:16.520Z,14.35
2017-11-04T15:43:16.561Z,14.30
2017-11-04T15:45:10.062Z,14.33
2017-11-04T15:46:10.122Z,14.48
2017-11-04T15:48:03.121Z,14.40
2017-11-04T15:49:03.166Z,14.37
2017-11-04T15:50:56.150Z,14.44
2017-11-04T15:51:56.207Z,14.40
2017-11-04T15:53:49.213Z,14.37
2017-11-04T15:54:49.253Z,14.43
2017-11-04T15:56:42.237Z,14.48
2017-11-04T15:57:42.298Z,14.47
2017-11-04T15:59:35.304Z,14.48
2017-11-04T16:00:35.343Z,14.53
2017-11-04T16:02:28.354Z,14.41
2017-11-04T16:03:28.389Z,14.51
2017-11-04T16:05:21.381Z,14.53
2017-11-04T16:06:21.443Z,14.53
2017-11-04T16:08:14.451Z,14.59
2017-11-04T16:09:14.487Z,14.62
2017-11-04T16:11:07.478Z,14.58
2017-11-04T16:12:07.535Z,14.55
2017-11-04T16:14:00.537Z,14.60
2017-11-04T16:15:00.596Z,14.66
2017-11-04T16:16:53.569Z,14.65
2017-11-04T16:17:53.635Z,14.53
2017-11-04T16:19:46.639Z,14.54
2017-11-04T16:20:46.678Z,14.65
2017-11-04T16:22:39.699Z,14.62
2017-11-04T16:23:39.737Z,14.54
2017-11-04T16:25:32.721Z,14.54
2017-11-04T16:26:32.780Z,14.63
2017-11-04T16:28:25.785Z,14.66
2017-11-04T16:29:25.826Z,14.63
2017-11-04T16:31:18.810Z,14.68
2017-11-04T16:32:18.871Z,14.65
2017-11-04T16:34:11.875Z,14.58
2017-11-04T16:35:11.918Z,14.65
2017-11-04T16:37:04.906Z,14.59
2017-11-04T16:38:04.961Z,14.68
2017-11-04T16:39:57.973Z,14.65
2017-11-04T16:40:58.015Z,14.62
2017-11-04T16:42:51.018Z,14.73
2017-11-04T16:43:51.059Z,14.73
2017-11-04T16:45:44.045Z,14.77
2017-11-04T16:46:44.106Z,14.79
2017-11-04T16:48:37.111Z,14.77
2017-11-04T16:49:37.153Z,14.70
2017-11-04T16:51:30.147Z,14.70
2017-11-04T16:52:30.200Z,14.79
2017-11-04T16:54:23.205Z,14.78
2017-11-04T16:55:23.246Z,14.72
2017-11-04T16:57:16.230Z,14.73
2017-11-04T16:58:16.292Z,14.73
2017-11-04T17:00:09.296Z,14.73
2017-11-04T17:01:09.338Z,14.78
2017-11-04T17:03:02.343Z,14.77
2017-11-04T17:04:02.383Z,14.72
2017-11-04T17:05:55.374Z,14.84
2017-11-04T17:06:55.437Z,14.73
2017-11-04T17:08:48.442Z,14.73
2017-11-04T17:09:48.480Z,14.78
2017-11-04T17:11:41.468Z,14.77
2017-11-04T17:12:41.526Z,14.72
2017-11-04T17:14:34.531Z,14.81
2017-11-04T17:15:34.572Z,14.73
2017-11-04T17:17:27.569Z,14.81
2017-11-04T17:18:27.621Z,14.82
2017-11-04T17:20:20.625Z,14.84
2017-11-04T17:21:20.667Z,14.85
2017-11-04T17:23:25.410Z,14.96
2017-11-04T17:24:25.450Z,14.82
2017-11-04T17:26:18.438Z,14.85
2017-11-04T17:27:18.491Z,14.84
2017-11-04T17:29:11.538Z,14.97
2017-11-04T17:30:11.545Z,14.96
2017-11-04T17:32:04.529Z,14.92
2017-11-04T17:33:04.587Z,14.96
2017-11-04T17:34:58.099Z,14.97
2017-11-04T17:35:58.142Z,15.03
2017-11-04T17:37:51.145Z,15.02
2017-11-04T17:38:51.185Z,14.97
2017-11-04T17:40:44.199Z,14.94
2017-11-04T17:41:44.233Z,14.96
2017-11-04T17:43:37.236Z,14.96
2017-11-04T17:44:37.277Z,14.89
2017-11-04T17:46:30.262Z,15.03
2017-11-04T17:47:30.328Z,14.91
2017-11-04T17:49:23.335Z,14.94
2017-11-04T17:50:23.377Z,14.96
2017-11-04T17:52:16.367Z,14.86
2017-11-04T17:53:16.430Z,14.94
2017-11-04T17:55:09.435Z,14.96
2017-11-04T17:56:09.475Z,14.91
2017-11-04T17:58:02.492Z,14.78
2017-11-04T17:59:02.533Z,14.82
2017-11-04T18:00:55.518Z,14.78
2017-11-04T18:01:55.577Z,14.77
2017-11-04T18:03:48.586Z,14.62
2017-11-04T18:04:48.627Z,14.63
2017-11-04T18:06:41.614Z,14.62
2017-11-04T18:07:41.706Z,14.48
2017-11-04T18:09:34.694Z,14.50
2017-11-04T18:10:34.739Z,14.54
2017-11-04T18:12:28.229Z,14.48
2017-11-04T18:13:28.276Z,14.54
2017-11-04T18:15:21.790Z,14.53
2017-11-04T18:16:21.830Z,14.58
2017-11-04T18:18:14.834Z,14.53
2017-11-04T18:19:14.874Z,14.40
2017-11-04T18:21:07.875Z,14.45
2017-11-04T18:22:07.930Z,14.54
2017-11-04T18:24:00.946Z,14.58
2017-11-04T18:25:00.985Z,14.54
2017-11-04T18:26:53.988Z,14.53
2017-11-04T18:27:54.043Z,14.54
2017-11-04T18:29:47.558Z,14.66
2017-11-04T18:30:47.599Z,14.53
2017-11-04T18:32:40.586Z,14.70
2017-11-04T18:33:40.648Z,14.63
2017-11-04T18:35:33.663Z,14.68
2017-11-04T18:36:33.701Z,14.60
2017-11-04T18:38:27.224Z,14.53
2017-11-04T18:39:27.259Z,14.47
2017-11-04T18:41:20.753Z,14.47
2017-11-04T18:42:20.811Z,14.41
2017-11-04T18:44:13.827Z,14.35
2017-11-04T18:45:13.874Z,14.45
2017-11-04T18:47:06.854Z,14.43
2017-11-04T18:48:06.920Z,14.47
2017-11-04T18:49:59.929Z,14.43
2017-11-04T18:50:59.963Z,14.37